createdAt,value
2022-12-08T00:00:00.153Z,2.69
2022-12-08T00:05:00.357Z,2.75
2022-12-08T00:10:00.114Z,2.75
2022-12-08T00:15:00.163Z,2.69
2022-12-08T00:20:00.110Z,2.69
2022-12-08T00:25:00.106Z,2.69
2022-12-08T00:30:00.168Z,2.69
2022-12-08T00:35:00.287Z,2.69
2022-12-08T00:40:00.145Z,2.69
2022-12-08T00:45:00.095Z,2.63
2022-12-08T00:50:00.256Z,2.63
2022-12-08T00:55:00.108Z,2.56
2022-12-08T01:00:00.325Z,2.56
2022-12-08T01:05:00.112Z,2.5
2022-12-08T01:10:00.155Z,2.5
2022-12-08T01:15:02.425Z,2.5
2022-12-08T01:20:00.090Z,2.5
2022-12-08T01:25:00.098Z,2.44
2022-12-08T01:30:00.132Z,2.44
2022-12-08T01:35:00.113Z,2.38
2022-12-08T01:40:00.096Z,2.38
2022-12-08T01:45:00.100Z,2.31
2022-12-08T01:50:00.114Z,2.31
2022-12-08T01:55:00.106Z,2.31
2022-12-08T02:00:00.136Z,2.25
2022-12-08T02:05:00.087Z,2.31
2022-12-08T02:10:00.154Z,2.31
2022-12-08T02:15:03.501Z,2.31
2022-12-08T02:20:00.101Z,2.38
2022-12-08T02:25:00.105Z,2.38
2022-12-08T02:30:00.131Z,2.44
2022-12-08T02:35:00.108Z,2.5
2022-12-08T02:40:00.101Z,2.5
2022-12-08T02:45:00.085Z,2.56
2022-12-08T02:50:00.125Z,2.56
2022-12-08T02:55:00.094Z,2.56
2022-12-08T03:00:00.102Z,2.5
2022-12-08T03:05:00.108Z,2.56
2022-12-08T03:10:00.104Z,2.5
2022-12-08T03:15:00.096Z,2.5
2022-12-08T03:20:00.117Z,2.44
2022-12-08T03:25:00.090Z,2.38
2022-12-08T03:30:00.139Z,2.38
2022-12-08T03:35:00.083Z,2.38
2022-12-08T03:40:00.098Z,2.38
2022-12-08T03:45:00.093Z,2.38
2022-12-08T03:50:00.132Z,2.38
2022-12-08T03:55:00.139Z,2.31
2022-12-08T04:00:00.110Z,2.19
2022-12-08T04:05:00.127Z,2.06
2022-12-08T04:10:00.105Z,2
2022-12-08T04:15:00.137Z,2
2022-12-08T04:20:00.099Z,2.06
2022-12-08T04:25:00.113Z,2.06
2022-12-08T04:30:00.149Z,2
2022-12-08T04:35:00.139Z,2
2022-12-08T04:40:00.110Z,2
2022-12-08T04:45:00.092Z,2
2022-12-08T04:50:00.136Z,2.06
2022-12-08T04:55:00.085Z,2.19
2022-12-08T05:00:00.096Z,2.19
2022-12-08T05:05:00.099Z,2.25
2022-12-08T05:10:00.126Z,2.25
2022-12-08T05:15:00.088Z,2.19
2022-12-08T05:20:00.079Z,2.13
2022-12-08T05:25:00.118Z,2.13
2022-12-08T05:30:00.213Z,2.13
2022-12-08T05:35:00.088Z,2.06
2022-12-08T05:40:00.078Z,1.94
2022-12-08T05:45:00.085Z,1.88
2022-12-08T05:50:00.114Z,1.88
2022-12-08T05:55:00.106Z,2
2022-12-08T06:00:00.098Z,2.06
2022-12-08T06:05:00.091Z,2.13
2022-12-08T06:10:00.120Z,2.13
2022-12-08T06:15:00.094Z,2.13
2022-12-08T06:20:00.094Z,2.06
2022-12-08T06:25:00.118Z,2
2022-12-08T06:30:00.179Z,1.94
2022-12-08T06:35:00.101Z,1.81
2022-12-08T06:40:00.125Z,1.75
2022-12-08T06:45:00.083Z,1.69
2022-12-08T06:50:00.115Z,1.56
2022-12-08T06:55:00.098Z,1.5
2022-12-08T07:00:00.152Z,1.44
2022-12-08T07:05:00.090Z,1.38
2022-12-08T07:10:00.123Z,1.38
2022-12-08T07:15:00.091Z,1.38
2022-12-08T07:20:00.101Z,1.38
2022-12-08T07:25:00.089Z,1.38
2022-12-08T07:30:00.134Z,1.5
2022-12-08T07:35:00.086Z,1.63
2022-12-08T07:40:00.101Z,1.81
2022-12-08T07:45:00.088Z,1.88
2022-12-08T07:50:00.117Z,1.94
2022-12-08T07:55:00.103Z,1.94
2022-12-08T08:00:00.130Z,1.94
2022-12-08T08:05:00.224Z,2
2022-12-08T08:10:00.179Z,2.06
2022-12-08T08:15:00.146Z,2.13
2022-12-08T08:20:00.123Z,2.19
2022-12-08T08:25:00.094Z,2.38
2022-12-08T08:30:00.157Z,2.5
2022-12-08T08:35:00.115Z,2.81
2022-12-08T08:40:00.156Z,3
2022-12-08T08:45:00.095Z,3.06
2022-12-08T08:50:00.120Z,3.19
2022-12-08T08:55:00.188Z,4.25
2022-12-08T09:00:00.156Z,4.88
2022-12-08T09:05:00.198Z,5.38
2022-12-08T09:10:01.980Z,5.31
2022-12-08T09:15:00.115Z,5.13
2022-12-08T09:20:00.105Z,4.63
2022-12-08T09:25:00.091Z,4.56
2022-12-08T09:30:00.316Z,4.56
2022-12-08T09:35:00.101Z,4.56
2022-12-08T09:40:00.106Z,4.56
2022-12-08T09:45:00.106Z,4.5
2022-12-08T09:50:00.113Z,4.44
2022-12-08T09:55:00.094Z,4.31
2022-12-08T10:00:00.119Z,4.31
2022-12-08T10:05:00.192Z,4.38
2022-12-08T10:10:00.172Z,4.5
2022-12-08T10:15:00.095Z,4.56
2022-12-08T10:20:00.115Z,4.63
2022-12-08T10:25:00.108Z,4.63
2022-12-08T10:30:00.129Z,4.63
2022-12-08T10:35:00.107Z,4.56
2022-12-08T10:40:00.109Z,4.63
2022-12-08T10:45:00.136Z,4.69
2022-12-08T10:50:00.108Z,4.69
2022-12-08T10:55:00.096Z,4.94
2022-12-08T11:00:00.102Z,5.13
2022-12-08T11:05:00.103Z,5.19
2022-12-08T11:10:00.129Z,5.25
2022-12-08T11:15:00.108Z,5.31
2022-12-08T11:20:00.132Z,5.19
2022-12-08T11:25:00.114Z,5.38
2022-12-08T11:30:00.119Z,6
2022-12-08T11:35:00.096Z,6.19
2022-12-08T11:40:00.121Z,6.25
2022-12-08T11:45:00.098Z,6
2022-12-08T11:50:00.135Z,5.75
2022-12-08T11:55:00.096Z,5.56
2022-12-08T12:00:00.116Z,5.38
2022-12-08T12:05:00.084Z,5.31
2022-12-08T12:10:00.111Z,5.19
2022-12-08T12:15:00.107Z,5.13
2022-12-08T12:20:00.105Z,4.94
2022-12-08T12:25:00.092Z,4.88
2022-12-08T12:30:00.171Z,4.81
2022-12-08T12:35:00.114Z,4.81
2022-12-08T12:40:00.090Z,4.81
2022-12-08T12:45:00.095Z,4.75
2022-12-08T12:50:00.209Z,4.69
2022-12-08T12:55:00.107Z,4.63
2022-12-08T13:00:00.098Z,4.63
2022-12-08T13:05:00.123Z,4.69
2022-12-08T13:10:00.166Z,4.69
2022-12-08T13:15:00.096Z,4.63
2022-12-08T13:20:00.092Z,4.69
2022-12-08T13:25:00.106Z,4.69
2022-12-08T13:30:00.189Z,4.69
2022-12-08T13:35:00.136Z,4.69
2022-12-08T13:40:00.124Z,4.63
2022-12-08T13:56:24.587Z,4.63
2022-12-08T14:00:00.108Z,4.56
2022-12-08T14:10:00.182Z,4.56
2022-12-08T14:15:03.549Z,4.69
2022-12-08T14:20:00.097Z,4.63
2022-12-08T14:25:00.084Z,4.5
2022-12-08T14:30:00.180Z,4.31
2022-12-08T14:35:00.128Z,4.13
2022-12-08T14:40:00.105Z,4.06
2022-12-08T14:45:00.088Z,4.06
2022-12-08T14:50:00.121Z,4
2022-12-08T14:55:00.106Z,4
2022-12-08T15:00:00.118Z,3.94
2022-12-08T15:05:00.157Z,3.88
2022-12-08T15:10:00.155Z,3.88
2022-12-08T15:15:00.120Z,3.88
2022-12-08T15:20:00.099Z,3.81
2022-12-08T15:25:00.149Z,3.81
2022-12-08T15:30:00.130Z,3.81
2022-12-08T15:35:00.107Z,3.75
2022-12-08T15:40:00.102Z,3.75
2022-12-08T15:45:00.098Z,3.75
2022-12-08T15:50:00.128Z,3.69
2022-12-08T15:55:00.098Z,3.69
2022-12-08T16:00:00.137Z,3.69
2022-12-08T16:10:00.344Z,3.69
2022-12-08T16:20:00.278Z,3.69
2022-12-08T16:25:09.490Z,3.69
2022-12-08T16:30:00.151Z,3.69
2022-12-08T16:35:00.105Z,3.56
2022-12-08T16:40:00.383Z,3.06
2022-12-08T16:45:00.089Z,2.56
2022-12-08T16:50:00.136Z,2.25
2022-12-08T16:55:00.087Z,2
2022-12-08T17:00:00.118Z,1.88
2022-12-08T17:05:00.156Z,1.81
2022-12-08T17:10:00.138Z,1.75
2022-12-08T17:15:00.115Z,1.69
2022-12-08T17:20:00.142Z,1.63
2022-12-08T17:25:00.105Z,1.5
2022-12-08T17:30:00.163Z,1.44
2022-12-08T17:35:00.109Z,1.31
2022-12-08T17:40:00.119Z,1.13
2022-12-08T17:45:00.108Z,0.94
2022-12-08T17:50:00.135Z,0.81
2022-12-08T17:55:00.088Z,0.63
2022-12-08T18:00:00.185Z,0.56
2022-12-08T18:05:00.110Z,0.5
2022-12-08T18:10:00.106Z,0.44
2022-12-08T18:15:00.126Z,0.44
2022-12-08T18:20:00.107Z,0.5
2022-12-08T18:25:00.107Z,0.56
2022-12-08T18:30:00.187Z,0.63
2022-12-08T18:35:00.089Z,0.69
2022-12-08T18:40:00.093Z,0.69
2022-12-08T18:45:00.115Z,0.69
2022-12-08T18:50:00.124Z,0.69
2022-12-08T18:55:07.756Z,0.63
2022-12-08T19:00:00.164Z,0.56
2022-12-08T19:05:00.113Z,0.56
2022-12-08T19:10:00.143Z,0.56
2022-12-08T19:15:00.114Z,0.56
2022-12-08T19:20:00.134Z,0.56
2022-12-08T19:25:00.090Z,0.56
2022-12-08T19:30:00.178Z,0.63
2022-12-08T19:35:00.096Z,0.63
2022-12-08T19:40:00.107Z,0.63
2022-12-08T19:45:00.100Z,0.63
2022-12-08T19:50:00.167Z,0.63
2022-12-08T19:55:00.112Z,0.63
2022-12-08T20:00:00.159Z,0.56
2022-12-08T20:05:00.140Z,0.56
2022-12-08T20:10:00.118Z,0.5
2022-12-08T20:15:00.138Z,0.56
2022-12-08T20:20:03.975Z,0.56
2022-12-08T20:25:01.085Z,0.56
2022-12-08T20:30:00.237Z,0.56
2022-12-08T20:35:00.105Z,0.56
2022-12-08T20:40:00.137Z,0.56
2022-12-08T20:45:00.112Z,0.56
2022-12-08T20:50:00.290Z,0.63
2022-12-08T20:55:00.236Z,0.63
2022-12-08T21:00:00.147Z,0.63
2022-12-08T21:05:00.277Z,0.63
2022-12-08T21:10:00.175Z,0.63
2022-12-08T21:15:00.274Z,0.56
2022-12-08T21:20:00.192Z,0.63
2022-12-08T21:25:00.328Z,0.56
2022-12-08T21:30:00.346Z,0.56
2022-12-08T21:35:00.230Z,0.44
2022-12-08T21:40:00.294Z,0.38
2022-12-08T21:45:00.167Z,0.31
2022-12-08T21:50:00.218Z,0.25
2022-12-08T21:55:00.294Z,0.25
2022-12-08T22:00:00.326Z,0.25
2022-12-08T22:05:00.238Z,0.25
2022-12-08T22:10:00.309Z,0.25
2022-12-08T22:15:00.246Z,0.25
2022-12-08T22:20:00.174Z,0.31
2022-12-08T22:25:00.329Z,0.31
2022-12-08T22:30:00.263Z,0.31
2022-12-08T22:35:00.107Z,0.38
2022-12-08T22:40:00.087Z,0.44
2022-12-08T22:45:00.097Z,0.44
2022-12-08T22:50:00.394Z,0.5
2022-12-08T22:55:00.148Z,0.5
2022-12-08T23:00:00.128Z,0.56
2022-12-08T23:05:00.466Z,0.56
2022-12-08T23:10:00.354Z,0.56
2022-12-08T23:15:00.082Z,0.56
2022-12-08T23:20:00.148Z,0.63
2022-12-08T23:25:00.090Z,0.56
2022-12-08T23:30:00.368Z,0.56
2022-12-08T23:35:00.270Z,0.56
2022-12-08T23:40:00.376Z,0.69
2022-12-08T23:45:00.339Z,0.63
2022-12-08T23:50:00.326Z,0.56
2022-12-08T23:55:00.097Z,0.56
